Aviation Digital Data Service (ADDS)

Output produced by TAFs form (0859 UTC 18 August 2017)
found at http://aviationweather.gov/adds/tafs/
 
METAR text: KIWA 180855Z AUTO 10003KT 10SM CLR 23/02 A2992 RMK AO2
Conditions at: KIWA (CHANDLER/MESA , AZ, US) observed 0855 UTC 18 August 2017
Temperature: 23.0°C (73°F)
Dewpoint: 2.0°C (36°F) [RH = 25%]
Pressure (altimeter): 29.92 inches Hg (1013.3 mb)
Winds: from the E (100 degrees) at 3 MPH (3 knots; 1.6 m/s)
Visibility: 10 or more miles (16+ km)
Ceiling: at least 12,000 feet AGL
Clouds: sky clear below 12,000 feet AGL
Weather: automated observation with no human augmentation;
there may or may not be significant weather present at this time

Forecast for: KIWA (CHANDLER/MESA , AZ, US)
Text: KIWA 180537Z 1806/1906 13006KT P6SM SKC
Forecast period: 0600 to 1800 UTC 18 August 2017
Forecast type: FROM: standard forecast or significant change
Winds: from the SE (130 degrees) at 7 MPH (6 knots; 3.1 m/s)
Visibility: 6 or more miles (10+ km)
Clouds: clear skies
Weather: no significant weather forecast for this period
Text: FM181800 27005KT P6SM SKC AMD LTD TO CLD VIS AND WIND TIL 181300
Forecast period: 1800 UTC 18 August 2017 to 0600 UTC 19 August 2017
Forecast type: FROM: standard forecast or significant change
Winds: from the W (270 degrees) at 6 MPH (5 knots; 2.6 m/s)
Visibility: 6 or more miles (10+ km)
Clouds: clear skies
Weather: no significant weather forecast for this period